sensor_id;sensor_type;location;lat;lon;timestamp;temperature;humidity
64685;DHT22;51109;47.414;18.954;2022-07-06T00:01:37;18.10;99.90
64685;DHT22;51109;47.414;18.954;2022-07-06T00:04:03;18.00;99.90
64685;DHT22;51109;47.414;18.954;2022-07-06T00:06:29;17.90;99.90
64685;DHT22;51109;47.414;18.954;2022-07-06T00:08:55;17.90;99.90
64685;DHT22;51109;47.414;18.954;2022-07-06T00:11:22;17.90;99.90
64685;DHT22;51109;47.414;18.954;2022-07-06T00:13:48;18.00;99.90
64685;DHT22;51109;47.414;18.954;2022-07-06T00:16:13;18.00;99.90
64685;DHT22;51109;47.414;18.954;2022-07-06T00:18:39;18.00;99.90
64685;DHT22;51109;47.414;18.954;2022-07-06T00:21:05;18.00;99.90
64685;DHT22;51109;47.414;18.954;2022-07-06T00:23:31;17.90;99.90
64685;DHT22;51109;47.414;18.954;2022-07-06T00:25:57;17.90;99.90
64685;DHT22;51109;47.414;18.954;2022-07-06T00:28:23;17.80;99.90
64685;DHT22;51109;47.414;18.954;2022-07-06T00:30:49;17.90;99.90
64685;DHT22;51109;47.414;18.954;2022-07-06T00:33:15;17.90;99.90
64685;DHT22;51109;47.414;18.954;2022-07-06T00:35:41;18.00;99.90
64685;DHT22;51109;47.414;18.954;2022-07-06T00:38:07;18.00;99.90
64685;DHT22;51109;47.414;18.954;2022-07-06T00:40:33;17.90;99.90
64685;DHT22;51109;47.414;18.954;2022-07-06T00:42:59;17.90;99.90
64685;DHT22;51109;47.414;18.954;2022-07-06T00:45:25;17.90;99.90
64685;DHT22;51109;47.414;18.954;2022-07-06T00:47:51;17.90;99.90
64685;DHT22;51109;47.414;18.954;2022-07-06T00:50:17;17.90;99.90
64685;DHT22;51109;47.414;18.954;2022-07-06T00:52:50;17.90;99.90
64685;DHT22;51109;47.414;18.954;2022-07-06T00:55:18;17.90;99.90
64685;DHT22;51109;47.414;18.954;2022-07-06T00:57:45;17.80;99.90
64685;DHT22;51109;47.414;18.954;2022-07-06T01:00:13;17.80;99.90
64685;DHT22;51109;47.414;18.954;2022-07-06T01:02:40;17.70;99.90
64685;DHT22;51109;47.414;18.954;2022-07-06T01:05:08;17.80;99.90
64685;DHT22;51109;47.414;18.954;2022-07-06T01:07:36;17.80;99.90
64685;DHT22;51109;47.414;18.954;2022-07-06T01:10:06;17.80;99.90
64685;DHT22;51109;47.414;18.954;2022-07-06T01:12:35;17.80;99.90
64685;DHT22;51109;47.414;18.954;2022-07-06T01:15:03;17.80;99.90
64685;DHT22;51109;47.414;18.954;2022-07-06T01:17:31;17.70;99.90
64685;DHT22;51109;47.414;18.954;2022-07-06T01:19:57;17.70;99.90
64685;DHT22;51109;47.414;18.954;2022-07-06T01:22:23;17.70;99.90
64685;DHT22;51109;47.414;18.954;2022-07-06T01:24:49;17.70;99.90
64685;DHT22;51109;47.414;18.954;2022-07-06T01:27:16;17.70;99.90
64685;DHT22;51109;47.414;18.954;2022-07-06T01:29:42;17.70;99.90
64685;DHT22;51109;47.414;18.954;2022-07-06T01:32:08;17.80;99.90
64685;DHT22;51109;47.414;18.954;2022-07-06T01:34:34;17.80;99.90
64685;DHT22;51109;47.414;18.954;2022-07-06T01:37:00;17.80;99.90
64685;DHT22;51109;47.414;18.954;2022-07-06T01:39:26;17.70;99.90
64685;DHT22;51109;47.414;18.954;2022-07-06T01:41:52;17.60;99.90
64685;DHT22;51109;47.414;18.954;2022-07-06T01:44:18;17.60;99.90
64685;DHT22;51109;47.414;18.954;2022-07-06T01:46:44;17.50;99.90
64685;DHT22;51109;47.414;18.954;2022-07-06T01:49:10;17.40;99.90
64685;DHT22;51109;47.414;18.954;2022-07-06T01:51:35;17.30;99.90
64685;DHT22;51109;47.414;18.954;2022-07-06T01:54:01;17.40;99.90
64685;DHT22;51109;47.414;18.954;2022-07-06T01:56:27;17.50;99.90
64685;DHT22;51109;47.414;18.954;2022-07-06T01:58:53;17.40;99.90
64685;DHT22;51109;47.414;18.954;2022-07-06T02:01:20;17.40;99.90
64685;DHT22;51109;47.414;18.954;2022-07-06T02:03:47;17.30;99.90
64685;DHT22;51109;47.414;18.954;2022-07-06T02:06:13;17.30;99.90
64685;DHT22;51109;47.414;18.954;2022-07-06T02:08:40;17.40;99.90
64685;DHT22;51109;47.414;18.954;2022-07-06T02:11:07;17.30;99.90
64685;DHT22;51109;47.414;18.954;2022-07-06T02:13:34;17.30;99.90
64685;DHT22;51109;47.414;18.954;2022-07-06T02:16:00;17.30;99.90
64685;DHT22;51109;47.414;18.954;2022-07-06T02:18:26;17.30;99.90
64685;DHT22;51109;47.414;18.954;2022-07-06T02:20:52;17.30;99.90
64685;DHT22;51109;47.414;18.954;2022-07-06T02:23:18;17.30;99.90
64685;DHT22;51109;47.414;18.954;2022-07-06T02:25:44;17.20;99.90
64685;DHT22;51109;47.414;18.954;2022-07-06T02:28:10;17.30;99.90
64685;DHT22;51109;47.414;18.954;2022-07-06T02:30:36;17.20;99.90
64685;DHT22;51109;47.414;18.954;2022-07-06T02:33:02;17.20;99.90
64685;DHT22;51109;47.414;18.954;2022-07-06T02:35:28;17.20;99.90
64685;DHT22;51109;47.414;18.954;2022-07-06T02:37:54;17.20;99.90
64685;DHT22;51109;47.414;18.954;2022-07-06T02:40:20;17.20;99.90
64685;DHT22;51109;47.414;18.954;2022-07-06T02:42:45;17.20;99.90
64685;DHT22;51109;47.414;18.954;2022-07-06T02:45:11;17.20;99.90
64685;DHT22;51109;47.414;18.954;2022-07-06T02:47:37;17.20;99.90
64685;DHT22;51109;47.414;18.954;2022-07-06T02:50:06;17.30;99.90
64685;DHT22;51109;47.414;18.954;2022-07-06T02:52:32;17.30;99.90
64685;DHT22;51109;47.414;18.954;2022-07-06T02:54:58;17.30;99.90
64685;DHT22;51109;47.414;18.954;2022-07-06T02:57:23;17.30;99.90
64685;DHT22;51109;47.414;18.954;2022-07-06T02:59:49;17.30;99.90
64685;DHT22;51109;47.414;18.954;2022-07-06T03:02:16;17.20;99.90
64685;DHT22;51109;47.414;18.954;2022-07-06T03:04:42;17.20;99.90
64685;DHT22;51109;47.414;18.954;2022-07-06T03:07:08;17.30;99.90
64685;DHT22;51109;47.414;18.954;2022-07-06T03:09:34;17.30;99.90
64685;DHT22;51109;47.414;18.954;2022-07-06T03:12:00;17.30;99.90
64685;DHT22;51109;47.414;18.954;2022-07-06T03:14:26;17.30;99.90
64685;DHT22;51109;47.414;18.954;2022-07-06T03:16:53;17.30;99.90
64685;DHT22;51109;47.414;18.954;2022-07-06T03:19:19;17.20;99.90
64685;DHT22;51109;47.414;18.954;2022-07-06T03:21:45;17.20;99.90
64685;DHT22;51109;47.414;18.954;2022-07-06T03:24:11;17.20;99.90
64685;DHT22;51109;47.414;18.954;2022-07-06T03:26:37;17.20;99.90
64685;DHT22;51109;47.414;18.954;2022-07-06T03:29:03;17.20;99.90
64685;DHT22;51109;47.414;18.954;2022-07-06T03:31:29;17.20;99.90
64685;DHT22;51109;47.414;18.954;2022-07-06T03:33:55;17.10;99.90
64685;DHT22;51109;47.414;18.954;2022-07-06T03:36:21;17.10;99.90
64685;DHT22;51109;47.414;18.954;2022-07-06T03:38:46;17.10;99.90
64685;DHT22;51109;47.414;18.954;2022-07-06T03:41:12;17.20;99.90
64685;DHT22;51109;47.414;18.954;2022-07-06T03:43:38;17.20;99.90
64685;DHT22;51109;47.414;18.954;2022-07-06T03:46:04;17.20;99.90
64685;DHT22;51109;47.414;18.954;2022-07-06T03:48:30;17.20;99.90
64685;DHT22;51109;47.414;18.954;2022-07-06T03:50:56;17.30;99.90
64685;DHT22;51109;47.414;18.954;2022-07-06T03:53:22;17.30;99.90
64685;DHT22;51109;47.414;18.954;2022-07-06T03:55:48;17.30;99.90
64685;DHT22;51109;47.414;18.954;2022-07-06T03:58:34;17.30;99.90
64685;DHT22;51109;47.414;18.954;2022-07-06T04:00:59;17.30;99.90
64685;DHT22;51109;47.414;18.954;2022-07-06T04:03:25;17.30;99.90
64685;DHT22;51109;47.414;18.954;2022-07-06T04:05:52;17.40;99.90
64685;DHT22;51109;47.414;18.954;2022-07-06T04:08:18;17.40;99.90
64685;DHT22;51109;47.414;18.954;2022-07-06T04:10:45;17.50;99.90
64685;DHT22;51109;47.414;18.954;2022-07-06T04:13:11;17.50;99.90
64685;DHT22;51109;47.414;18.954;2022-07-06T04:15:37;17.50;99.90
64685;DHT22;51109;47.414;18.954;2022-07-06T04:18:03;17.60;99.90
64685;DHT22;51109;47.414;18.954;2022-07-06T04:20:29;17.60;99.90
64685;DHT22;51109;47.414;18.954;2022-07-06T04:22:55;17.70;99.90
64685;DHT22;51109;47.414;18.954;2022-07-06T04:25:21;17.80;99.90
64685;DHT22;51109;47.414;18.954;2022-07-06T04:27:47;17.90;99.90
64685;DHT22;51109;47.414;18.954;2022-07-06T04:30:13;17.90;99.90
64685;DHT22;51109;47.414;18.954;2022-07-06T04:32:39;18.00;99.90
64685;DHT22;51109;47.414;18.954;2022-07-06T04:35:05;18.10;99.90
64685;DHT22;51109;47.414;18.954;2022-07-06T04:37:32;18.10;99.90
64685;DHT22;51109;47.414;18.954;2022-07-06T04:39:58;18.10;99.90
64685;DHT22;51109;47.414;18.954;2022-07-06T04:42:24;18.10;99.90
64685;DHT22;51109;47.414;18.954;2022-07-06T04:44:55;18.20;99.90
64685;DHT22;51109;47.414;18.954;2022-07-06T04:47:21;18.30;99.90
64685;DHT22;51109;47.414;18.954;2022-07-06T04:49:47;18.30;99.90
64685;DHT22;51109;47.414;18.954;2022-07-06T04:52:13;18.40;99.90
64685;DHT22;51109;47.414;18.954;2022-07-06T04:54:39;18.40;99.90
64685;DHT22;51109;47.414;18.954;2022-07-06T04:57:04;18.50;99.90
64685;DHT22;51109;47.414;18.954;2022-07-06T04:59:30;18.60;99.90
64685;DHT22;51109;47.414;18.954;2022-07-06T05:01:56;18.60;99.90
64685;DHT22;51109;47.414;18.954;2022-07-06T05:04:22;18.70;99.90
64685;DHT22;51109;47.414;18.954;2022-07-06T05:06:50;18.80;99.90
64685;DHT22;51109;47.414;18.954;2022-07-06T05:09:16;18.90;99.90
64685;DHT22;51109;47.414;18.954;2022-07-06T05:11:42;19.00;99.90
64685;DHT22;51109;47.414;18.954;2022-07-06T05:14:08;19.10;99.90
64685;DHT22;51109;47.414;18.954;2022-07-06T05:16:33;19.20;99.90
64685;DHT22;51109;47.414;18.954;2022-07-06T05:18:59;19.30;99.90
64685;DHT22;51109;47.414;18.954;2022-07-06T05:21:25;19.50;99.90
64685;DHT22;51109;47.414;18.954;2022-07-06T05:23:51;19.50;99.90
64685;DHT22;51109;47.414;18.954;2022-07-06T05:26:17;19.50;99.90
64685;DHT22;51109;47.414;18.954;2022-07-06T05:28:43;19.70;99.90
64685;DHT22;51109;47.414;18.954;2022-07-06T05:31:09;19.80;99.90
64685;DHT22;51109;47.414;18.954;2022-07-06T05:33:35;19.80;99.90
64685;DHT22;51109;47.414;18.954;2022-07-06T05:36:01;19.90;99.90
64685;DHT22;51109;47.414;18.954;2022-07-06T05:38:26;19.90;99.90
64685;DHT22;51109;47.414;18.954;2022-07-06T05:40:52;20.00;99.90
64685;DHT22;51109;47.414;18.954;2022-07-06T05:43:18;20.00;99.90
64685;DHT22;51109;47.414;18.954;2022-07-06T05:45:44;20.10;99.90
64685;DHT22;51109;47.414;18.954;2022-07-06T05:48:10;20.20;99.90
64685;DHT22;51109;47.414;18.954;2022-07-06T05:50:54;20.30;99.90
64685;DHT22;51109;47.414;18.954;2022-07-06T05:53:20;20.30;99.90
64685;DHT22;51109;47.414;18.954;2022-07-06T05:55:47;20.30;99.90
64685;DHT22;51109;47.414;18.954;2022-07-06T05:58:14;20.20;99.90
64685;DHT22;51109;47.414;18.954;2022-07-06T06:00:40;20.30;99.90
64685;DHT22;51109;47.414;18.954;2022-07-06T06:03:06;20.30;99.90
64685;DHT22;51109;47.414;18.954;2022-07-06T06:05:31;20.40;99.90
64685;DHT22;51109;47.414;18.954;2022-07-06T06:07:57;20.60;99.90
64685;DHT22;51109;47.414;18.954;2022-07-06T06:10:23;20.60;99.90
64685;DHT22;51109;47.414;18.954;2022-07-06T06:12:50;20.60;99.90
64685;DHT22;51109;47.414;18.954;2022-07-06T06:15:17;20.60;99.90
64685;DHT22;51109;47.414;18.954;2022-07-06T06:17:43;20.80;99.90
64685;DHT22;51109;47.414;18.954;2022-07-06T06:20:11;21.20;99.90
64685;DHT22;51109;47.414;18.954;2022-07-06T06:25:27;21.40;99.90
64685;DHT22;51109;47.414;18.954;2022-07-06T06:27:54;21.60;99.90
64685;DHT22;51109;47.414;18.954;2022-07-06T06:30:19;21.60;99.90
64685;DHT22;51109;47.414;18.954;2022-07-06T06:32:45;21.50;99.90
64685;DHT22;51109;47.414;18.954;2022-07-06T06:35:12;21.40;99.90
64685;DHT22;51109;47.414;18.954;2022-07-06T06:37:38;21.50;99.90
64685;DHT22;51109;47.414;18.954;2022-07-06T06:40:06;21.60;99.90
64685;DHT22;51109;47.414;18.954;2022-07-06T06:42:35;22.00;99.90
64685;DHT22;51109;47.414;18.954;2022-07-06T06:45:02;22.10;99.90
64685;DHT22;51109;47.414;18.954;2022-07-06T06:47:28;22.30;99.90
64685;DHT22;51109;47.414;18.954;2022-07-06T06:49:54;22.30;99.90
64685;DHT22;51109;47.414;18.954;2022-07-06T06:52:20;22.20;99.90
64685;DHT22;51109;47.414;18.954;2022-07-06T06:54:46;22.10;99.90
64685;DHT22;51109;47.414;18.954;2022-07-06T06:57:11;22.00;99.90
64685;DHT22;51109;47.414;18.954;2022-07-06T06:59:38;22.10;99.90
64685;DHT22;51109;47.414;18.954;2022-07-06T08:23:48;25.30;99.90
64685;DHT22;51109;47.414;18.954;2022-07-06T08:26:14;25.90;99.90
64685;DHT22;51109;47.414;18.954;2022-07-06T08:28:41;25.80;99.90
64685;DHT22;51109;47.414;18.954;2022-07-06T08:31:07;25.90;99.90
64685;DHT22;51109;47.414;18.954;2022-07-06T08:33:32;25.90;99.90
64685;DHT22;51109;47.414;18.954;2022-07-06T08:35:58;25.90;99.90
64685;DHT22;51109;47.414;18.954;2022-07-06T08:38:25;25.90;99.90
64685;DHT22;51109;47.414;18.954;2022-07-06T08:40:51;26.00;99.90
64685;DHT22;51109;47.414;18.954;2022-07-06T08:43:17;26.10;99.90
64685;DHT22;51109;47.414;18.954;2022-07-06T08:45:43;26.30;99.90
64685;DHT22;51109;47.414;18.954;2022-07-06T08:48:11;26.50;99.90
64685;DHT22;51109;47.414;18.954;2022-07-06T08:50:38;26.70;99.90
64685;DHT22;51109;47.414;18.954;2022-07-06T08:53:04;26.50;99.90
64685;DHT22;51109;47.414;18.954;2022-07-06T08:55:31;26.40;99.90
64685;DHT22;51109;47.414;18.954;2022-07-06T08:57:57;26.50;99.90
64685;DHT22;51109;47.414;18.954;2022-07-06T09:00:24;26.10;99.90
64685;DHT22;51109;47.414;18.954;2022-07-06T09:02:51;25.80;99.90
64685;DHT22;51109;47.414;18.954;2022-07-06T09:05:21;25.70;99.90
64685;DHT22;51109;47.414;18.954;2022-07-06T09:07:52;25.90;99.90
64685;DHT22;51109;47.414;18.954;2022-07-06T09:10:20;26.00;99.90
64685;DHT22;51109;47.414;18.954;2022-07-06T09:12:46;26.10;99.90
64685;DHT22;51109;47.414;18.954;2022-07-06T09:15:12;26.20;99.90
64685;DHT22;51109;47.414;18.954;2022-07-06T09:17:39;26.30;99.90
64685;DHT22;51109;47.414;18.954;2022-07-06T09:20:10;26.30;99.90
64685;DHT22;51109;47.414;18.954;2022-07-06T09:22:38;26.40;99.90
64685;DHT22;51109;47.414;18.954;2022-07-06T09:27:47;26.90;99.90
64685;DHT22;51109;47.414;18.954;2022-07-06T09:30:16;27.00;99.90
64685;DHT22;51109;47.414;18.954;2022-07-06T09:32:45;27.20;99.90
64685;DHT22;51109;47.414;18.954;2022-07-06T09:35:31;27.30;99.90
64685;DHT22;51109;47.414;18.954;2022-07-06T09:38:03;27.50;99.90
64685;DHT22;51109;47.414;18.954;2022-07-06T09:40:36;27.40;99.90
64685;DHT22;51109;47.414;18.954;2022-07-06T09:43:22;27.50;99.90
64685;DHT22;51109;47.414;18.954;2022-07-06T09:45:52;27.60;99.90
64685;DHT22;51109;47.414;18.954;2022-07-06T09:48:20;27.80;99.90
64685;DHT22;51109;47.414;18.954;2022-07-06T09:53:22;27.90;99.90
64685;DHT22;51109;47.414;18.954;2022-07-06T09:55:55;27.90;99.90
64685;DHT22;51109;47.414;18.954;2022-07-06T09:58:22;27.80;99.90
64685;DHT22;51109;47.414;18.954;2022-07-06T10:00:48;27.60;99.90
64685;DHT22;51109;47.414;18.954;2022-07-06T10:03:15;27.90;99.90
64685;DHT22;51109;47.414;18.954;2022-07-06T10:05:43;27.90;99.90
64685;DHT22;51109;47.414;18.954;2022-07-06T10:08:09;27.90;99.90
64685;DHT22;51109;47.414;18.954;2022-07-06T10:10:37;28.00;99.90
64685;DHT22;51109;47.414;18.954;2022-07-06T10:13:04;28.10;99.90
64685;DHT22;51109;47.414;18.954;2022-07-06T10:15:32;28.00;99.90
64685;DHT22;51109;47.414;18.954;2022-07-06T10:18:04;28.00;99.90
64685;DHT22;51109;47.414;18.954;2022-07-06T10:20:35;28.20;99.90
64685;DHT22;51109;47.414;18.954;2022-07-06T10:23:07;28.40;99.90
64685;DHT22;51109;47.414;18.954;2022-07-06T10:25:34;28.50;99.90
64685;DHT22;51109;47.414;18.954;2022-07-06T10:28:01;28.50;99.90
64685;DHT22;51109;47.414;18.954;2022-07-06T10:30:28;28.60;99.90
64685;DHT22;51109;47.414;18.954;2022-07-06T10:32:57;28.40;99.90
64685;DHT22;51109;47.414;18.954;2022-07-06T10:35:24;28.40;99.90
64685;DHT22;51109;47.414;18.954;2022-07-06T10:38:07;28.30;99.90
64685;DHT22;51109;47.414;18.954;2022-07-06T10:40:37;28.30;99.90
64685;DHT22;51109;47.414;18.954;2022-07-06T10:43:22;28.40;99.90
64685;DHT22;51109;47.414;18.954;2022-07-06T10:50:46;28.70;99.90
64685;DHT22;51109;47.414;18.954;2022-07-06T10:53:14;28.60;99.90
64685;DHT22;51109;47.414;18.954;2022-07-06T10:55:44;28.60;99.90
64685;DHT22;51109;47.414;18.954;2022-07-06T10:58:11;28.70;99.90
64685;DHT22;51109;47.414;18.954;2022-07-06T11:06:06;28.90;99.90
64685;DHT22;51109;47.414;18.954;2022-07-06T11:14:16;29.00;98.70
64685;DHT22;51109;47.414;18.954;2022-07-06T11:19:16;28.80;99.90
64685;DHT22;51109;47.414;18.954;2022-07-06T11:21:47;28.60;98.50
64685;DHT22;51109;47.414;18.954;2022-07-06T11:24:36;28.50;99.10
64685;DHT22;51109;47.414;18.954;2022-07-06T11:27:01;28.70;98.00
64685;DHT22;51109;47.414;18.954;2022-07-06T11:29:28;28.90;97.20
64685;DHT22;51109;47.414;18.954;2022-07-06T11:31:59;29.10;97.20
64685;DHT22;51109;47.414;18.954;2022-07-06T11:34:28;29.10;97.50
64685;DHT22;51109;47.414;18.954;2022-07-06T11:36:56;29.20;94.40
64685;DHT22;51109;47.414;18.954;2022-07-06T11:39:25;29.20;93.10
64685;DHT22;51109;47.414;18.954;2022-07-06T11:41:51;29.30;94.10
64685;DHT22;51109;47.414;18.954;2022-07-06T11:44:19;29.20;94.20
64685;DHT22;51109;47.414;18.954;2022-07-06T11:46:45;29.20;94.50
64685;DHT22;51109;47.414;18.954;2022-07-06T11:49:11;29.40;92.80
64685;DHT22;51109;47.414;18.954;2022-07-06T11:51:39;29.40;91.10
64685;DHT22;51109;47.414;18.954;2022-07-06T11:54:10;29.40;87.30
64685;DHT22;51109;47.414;18.954;2022-07-06T11:56:36;29.30;90.80
64685;DHT22;51109;47.414;18.954;2022-07-06T11:59:03;29.20;85.90
64685;DHT22;51109;47.414;18.954;2022-07-06T12:01:31;29.10;92.50
64685;DHT22;51109;47.414;18.954;2022-07-06T12:03:59;29.10;91.20
64685;DHT22;51109;47.414;18.954;2022-07-06T12:06:26;29.40;91.90
64685;DHT22;51109;47.414;18.954;2022-07-06T12:08:54;29.30;90.70
64685;DHT22;51109;47.414;18.954;2022-07-06T12:11:22;29.30;92.30
64685;DHT22;51109;47.414;18.954;2022-07-06T12:13:49;29.30;91.80
64685;DHT22;51109;47.414;18.954;2022-07-06T12:16:16;29.10;90.20
64685;DHT22;51109;47.414;18.954;2022-07-06T12:18:43;29.10;91.40
64685;DHT22;51109;47.414;18.954;2022-07-06T12:21:12;29.20;88.90
64685;DHT22;51109;47.414;18.954;2022-07-06T12:23:46;29.20;89.50
64685;DHT22;51109;47.414;18.954;2022-07-06T12:26:14;29.30;90.40
64685;DHT22;51109;47.414;18.954;2022-07-06T12:28:42;29.20;90.10
64685;DHT22;51109;47.414;18.954;2022-07-06T12:31:08;29.20;91.10
64685;DHT22;51109;47.414;18.954;2022-07-06T12:33:34;29.30;90.30
64685;DHT22;51109;47.414;18.954;2022-07-06T12:36:11;29.50;91.10
64685;DHT22;51109;47.414;18.954;2022-07-06T12:38:44;29.70;90.40
64685;DHT22;51109;47.414;18.954;2022-07-06T12:41:23;29.70;90.30
64685;DHT22;51109;47.414;18.954;2022-07-06T12:43:49;29.40;89.20
64685;DHT22;51109;47.414;18.954;2022-07-06T12:46:39;29.30;92.30
64685;DHT22;51109;47.414;18.954;2022-07-06T12:54:19;29.40;91.20
64685;DHT22;51109;47.414;18.954;2022-07-06T12:59:30;29.00;89.90
64685;DHT22;51109;47.414;18.954;2022-07-06T13:01:57;28.90;90.50
64685;DHT22;51109;47.414;18.954;2022-07-06T13:04:30;29.10;89.50
64685;DHT22;51109;47.414;18.954;2022-07-06T13:07:00;29.20;88.50
64685;DHT22;51109;47.414;18.954;2022-07-06T13:09:27;28.90;86.00
64685;DHT22;51109;47.414;18.954;2022-07-06T13:14:19;28.30;85.60
64685;DHT22;51109;47.414;18.954;2022-07-06T13:16:46;28.60;87.60
64685;DHT22;51109;47.414;18.954;2022-07-06T13:19:13;28.80;89.20
64685;DHT22;51109;47.414;18.954;2022-07-06T13:21:39;28.80;85.50
64685;DHT22;51109;47.414;18.954;2022-07-06T13:24:05;28.70;86.20
64685;DHT22;51109;47.414;18.954;2022-07-06T13:26:32;28.80;85.60
64685;DHT22;51109;47.414;18.954;2022-07-06T13:29:05;29.10;88.60
64685;DHT22;51109;47.414;18.954;2022-07-06T13:31:31;29.30;90.20
64685;DHT22;51109;47.414;18.954;2022-07-06T13:33:57;29.30;88.30
64685;DHT22;51109;47.414;18.954;2022-07-06T13:36:23;29.30;89.10
64685;DHT22;51109;47.414;18.954;2022-07-06T13:38:49;29.20;86.90
64685;DHT22;51109;47.414;18.954;2022-07-06T13:41:15;29.20;89.00
64685;DHT22;51109;47.414;18.954;2022-07-06T13:43:41;29.50;90.00
64685;DHT22;51109;47.414;18.954;2022-07-06T13:46:07;29.70;91.10
64685;DHT22;51109;47.414;18.954;2022-07-06T13:48:34;29.40;90.20
64685;DHT22;51109;47.414;18.954;2022-07-06T13:51:00;29.30;91.70
64685;DHT22;51109;47.414;18.954;2022-07-06T13:53:27;29.30;90.70
64685;DHT22;51109;47.414;18.954;2022-07-06T13:55:53;29.40;91.50
64685;DHT22;51109;47.414;18.954;2022-07-06T13:58:19;29.40;90.50
64685;DHT22;51109;47.414;18.954;2022-07-06T14:00:46;29.20;90.00
64685;DHT22;51109;47.414;18.954;2022-07-06T14:03:12;28.90;90.50
64685;DHT22;51109;47.414;18.954;2022-07-06T14:05:38;29.00;90.60
64685;DHT22;51109;47.414;18.954;2022-07-06T14:08:04;29.00;92.20
64685;DHT22;51109;47.414;18.954;2022-07-06T14:10:30;29.00;90.50
64685;DHT22;51109;47.414;18.954;2022-07-06T14:12:56;29.00;90.20
64685;DHT22;51109;47.414;18.954;2022-07-06T14:15:22;29.10;89.20
64685;DHT22;51109;47.414;18.954;2022-07-06T14:17:48;29.10;90.10
64685;DHT22;51109;47.414;18.954;2022-07-06T14:20:14;29.10;90.10
64685;DHT22;51109;47.414;18.954;2022-07-06T14:22:40;29.20;90.50
64685;DHT22;51109;47.414;18.954;2022-07-06T14:25:07;29.30;90.10
64685;DHT22;51109;47.414;18.954;2022-07-06T14:27:34;29.00;89.30
64685;DHT22;51109;47.414;18.954;2022-07-06T14:30:01;29.10;90.70
64685;DHT22;51109;47.414;18.954;2022-07-06T14:32:27;29.10;90.00
64685;DHT22;51109;47.414;18.954;2022-07-06T14:34:52;28.80;90.10
64685;DHT22;51109;47.414;18.954;2022-07-06T14:37:18;28.90;91.70
64685;DHT22;51109;47.414;18.954;2022-07-06T14:39:44;28.90;87.90
64685;DHT22;51109;47.414;18.954;2022-07-06T14:42:14;28.90;88.30
64685;DHT22;51109;47.414;18.954;2022-07-06T14:44:40;29.10;89.60
64685;DHT22;51109;47.414;18.954;2022-07-06T14:47:06;29.10;88.70
64685;DHT22;51109;47.414;18.954;2022-07-06T14:49:32;29.30;85.70
64685;DHT22;51109;47.414;18.954;2022-07-06T14:51:58;29.00;86.20
64685;DHT22;51109;47.414;18.954;2022-07-06T14:54:25;29.10;85.40
64685;DHT22;51109;47.414;18.954;2022-07-06T14:56:51;29.00;83.70
64685;DHT22;51109;47.414;18.954;2022-07-06T14:59:17;28.90;84.20
64685;DHT22;51109;47.414;18.954;2022-07-06T15:01:44;29.00;84.70
64685;DHT22;51109;47.414;18.954;2022-07-06T15:04:10;29.10;82.40
64685;DHT22;51109;47.414;18.954;2022-07-06T15:06:38;29.10;83.30
64685;DHT22;51109;47.414;18.954;2022-07-06T15:09:04;28.70;81.30
64685;DHT22;51109;47.414;18.954;2022-07-06T15:11:30;28.30;82.30
64685;DHT22;51109;47.414;18.954;2022-07-06T15:13:56;28.20;85.30
64685;DHT22;51109;47.414;18.954;2022-07-06T15:16:22;28.40;83.90
64685;DHT22;51109;47.414;18.954;2022-07-06T15:18:50;28.40;85.00
64685;DHT22;51109;47.414;18.954;2022-07-06T15:21:17;28.80;85.10
64685;DHT22;51109;47.414;18.954;2022-07-06T15:23:43;29.10;84.00
64685;DHT22;51109;47.414;18.954;2022-07-06T15:26:09;29.30;84.50
64685;DHT22;51109;47.414;18.954;2022-07-06T15:28:34;29.40;83.50
64685;DHT22;51109;47.414;18.954;2022-07-06T15:31:00;29.30;80.00
64685;DHT22;51109;47.414;18.954;2022-07-06T15:33:26;29.50;80.50
64685;DHT22;51109;47.414;18.954;2022-07-06T15:38:18;29.70;77.90
64685;DHT22;51109;47.414;18.954;2022-07-06T15:40:44;29.70;78.30
64685;DHT22;51109;47.414;18.954;2022-07-06T15:43:13;29.70;77.20
64685;DHT22;51109;47.414;18.954;2022-07-06T15:45:39;30.00;77.80
64685;DHT22;51109;47.414;18.954;2022-07-06T15:48:06;30.30;77.30
64685;DHT22;51109;47.414;18.954;2022-07-06T15:50:32;30.30;78.40
64685;DHT22;51109;47.414;18.954;2022-07-06T15:52:58;30.40;76.70
64685;DHT22;51109;47.414;18.954;2022-07-06T15:55:24;30.30;77.30
64685;DHT22;51109;47.414;18.954;2022-07-06T15:57:52;30.40;77.60
64685;DHT22;51109;47.414;18.954;2022-07-06T16:00:18;30.50;77.80
64685;DHT22;51109;47.414;18.954;2022-07-06T16:02:44;31.00;78.60
64685;DHT22;51109;47.414;18.954;2022-07-06T16:05:10;31.40;77.30
64685;DHT22;51109;47.414;18.954;2022-07-06T16:07:36;31.20;76.70
64685;DHT22;51109;47.414;18.954;2022-07-06T16:10:02;30.70;76.30
64685;DHT22;51109;47.414;18.954;2022-07-06T16:12:28;30.30;76.90
64685;DHT22;51109;47.414;18.954;2022-07-06T16:14:54;30.30;77.90
64685;DHT22;51109;47.414;18.954;2022-07-06T16:17:20;30.40;77.60
64685;DHT22;51109;47.414;18.954;2022-07-06T16:19:46;30.50;79.40
64685;DHT22;51109;47.414;18.954;2022-07-06T16:22:12;29.90;78.10
64685;DHT22;51109;47.414;18.954;2022-07-06T16:24:38;29.50;78.00
64685;DHT22;51109;47.414;18.954;2022-07-06T16:27:06;29.40;77.90
64685;DHT22;51109;47.414;18.954;2022-07-06T16:29:32;29.00;78.40
64685;DHT22;51109;47.414;18.954;2022-07-06T16:31:58;29.00;79.00
64685;DHT22;51109;47.414;18.954;2022-07-06T16:34:24;29.30;81.30
64685;DHT22;51109;47.414;18.954;2022-07-06T16:36:50;29.90;77.20
64685;DHT22;51109;47.414;18.954;2022-07-06T16:39:16;29.90;76.90
64685;DHT22;51109;47.414;18.954;2022-07-06T16:41:42;29.70;76.80
64685;DHT22;51109;47.414;18.954;2022-07-06T16:44:08;29.20;78.80
64685;DHT22;51109;47.414;18.954;2022-07-06T16:46:34;28.60;79.70
64685;DHT22;51109;47.414;18.954;2022-07-06T16:49:00;28.00;80.30
64685;DHT22;51109;47.414;18.954;2022-07-06T16:51:26;27.80;82.30
64685;DHT22;51109;47.414;18.954;2022-07-06T16:53:52;27.50;82.30
64685;DHT22;51109;47.414;18.954;2022-07-06T16:56:18;27.30;82.20
64685;DHT22;51109;47.414;18.954;2022-07-06T16:58:43;27.00;84.00
64685;DHT22;51109;47.414;18.954;2022-07-06T17:01:09;26.90;83.10
64685;DHT22;51109;47.414;18.954;2022-07-06T17:03:35;26.80;84.40
64685;DHT22;51109;47.414;18.954;2022-07-06T17:06:01;26.80;85.00
64685;DHT22;51109;47.414;18.954;2022-07-06T17:08:27;26.60;84.50
64685;DHT22;51109;47.414;18.954;2022-07-06T17:10:53;26.40;84.00
64685;DHT22;51109;47.414;18.954;2022-07-06T17:13:19;26.40;84.40
64685;DHT22;51109;47.414;18.954;2022-07-06T17:15:45;26.20;86.20